| time (UTC) | temp F | wind direction | speed knots | gust knots | rain 1hr in | rain 24hr in | rain mn in | humidity % | barometer mb |
| 20260504035015 | 43 | 0.0 | 0.0 | 0.00 | 0.00 | 0.00 | 84 | 1017.3 | |
| 20260504034015 | 43 | 0.0 | 0.0 | 0.00 | 0.00 | 0.00 | 83 | 1017.3 | |
| 20260504033015 | 43 | 0.0 | 0.0 | 0.00 | 0.00 | 0.00 | 83 | 1017.1 | |
| 20260504032016 | 43 | 0.0 | 0.0 | 0.00 | 0.00 | 0.00 | 81 | 1016.8 | |
| 20260504031015 | 43 | 0.0 | 0.0 | 0.00 | 0.00 | 0.00 | 81 | 1016.9 | |
| 20260504030035 | 44 | 0.0 | 0.0 | 0.00 | 0.00 | 0.00 | 81 | 1017.0 | |
| 20260504025015 | 44 | 0.0 | 0.0 | 0.00 | 0.00 | 0.00 | 80 | 1017.0 | |
| 20260504024015 | 44 | 0.0 | 0.0 | 0.00 | 0.00 | 0.00 | 80 | 1016.8 | |
| 20260504023015 | 45 | 0.0 | 0.0 | 0.00 | 0.00 | 0.00 | 79 | 1017.0 | |
| 20260504022015 | 45 | 0.0 | 0.0 | 0.00 | 0.00 | 0.00 | 78 | 1016.8 | |
| 20260504021016 | 46 | 0.0 | 0.0 | 0.00 | 0.00 | 0.00 | 77 | 1016.8 | |
| 20260504020015 | 46 | 0.0 | 0.0 | 0.00 | 0.00 | 0.00 | 77 | 1016.5 | |
| 20260504015016 | 47 | 0.0 | 0.0 | 0.00 | 0.00 | 0.00 | 76 | 1016.4 | |
| 20260504014015 | 47 | 0.0 | 0.0 | 0.00 | 0.00 | 0.00 | 75 | 1016.4 | |
| 20260504013016 | 48 | 0.0 | 0.0 | 0.00 | 0.00 | 0.00 | 74 | 1016.3 | |
| 20260504012035 | 48 | 0.0 | 0.0 | 0.00 | 0.00 | 0.00 | 72 | 1016.1 | |
| 20260504011015 | 49 | 0.0 | 0.0 | 0.00 | 0.00 | 0.00 | 72 | 1016.1 | |
| 20260504010035 | 50 | 0.0 | 0.0 | 0.00 | 0.00 | 0.00 | 69 | 1016.0 | |
| 20260504005015 | 51 | 0.0 | 0.0 | 0.00 | 0.00 | 0.00 | 68 | 1015.9 | |
| 20260504004014 | 51 | 0.0 | 0.0 | 0.00 | 0.00 | 0.00 | 67 | 1015.8 | |
| 20260504003015 | 52 | 0.0 | 0.0 | 0.00 | 0.00 | 0.00 | 65 | 1015.7 | |
| 20260504002035 | 53 | 0.0 | 0.0 | 0.00 | 0.00 | 0.00 | 63 | 1015.7 | |
| 20260504001015 | 55 | 0.0 | 0.0 | 0.00 | 0.00 | 0.00 | 61 | 1015.8 | |
| 20260504000016 | 56 | 0.0 | 0.0 | 0.00 | 0.00 | 0.00 | 59 | 1015.9 | |
| 20260503235015 | 57 | 0.0 | 0.0 | 0.00 | 0.00 | 0.00 | 57 | 1016.0 | |
| 20260503234037 | 58 | 0.0 | 0.0 | 0.00 | 0.00 | 0.00 | 55 | 1016.0 | |
| 20260503233017 | 59 | 0.0 | 2.6 | 0.00 | 0.00 | 0.00 | 53 | 1016.0 | |
| 20260503232057 | 60 | 334 | 0.9 | 2.6 | 0.00 | 0.00 | 0.00 | 50 | 1016.0 |
| 20260503231016 | 61 | 326 | 1.7 | 3.5 | 0.00 | 0.00 | 0.00 | 46 | 1016.1 |
| 20260503230017 | 62 | 332 | 1.7 | 3.5 | 0.00 | 0.00 | 0.00 | 44 | 1016.0 |
| 20260503225017 | 62 | 339 | 1.7 | 4.3 | 0.00 | 0.00 | 0.00 | 44 | 1016.2 |
| 20260503224017 | 62 | 341 | 1.7 | 4.3 | 0.00 | 0.00 | 0.00 | 43 | 1016.3 |
| 20260503223037 | 62 | 324 | 1.7 | 3.5 | 0.00 | 0.00 | 0.00 | 41 | 1016.3 |
| 20260503222037 | 62 | 302 | 1.7 | 5.2 | 0.00 | 0.00 | 0.00 | 41 | 1016.4 |
| 20260503221037 | 62 | 340 | 1.7 | 5.2 | 0.00 | 0.00 | 0.00 | 38 | 1016.4 |
| 20260503220016 | 63 | 322 | 1.7 | 3.5 | 0.00 | 0.00 | 0.00 | 38 | 1016.4 |
| 20260503215058 | 63 | 328 | 1.7 | 4.3 | 0.00 | 0.00 | 0.00 | 39 | 1016.5 |
| 20260503214036 | 63 | 333 | 1.7 | 4.3 | 0.00 | 0.00 | 0.00 | 39 | 1016.6 |
| 20260503213016 | 63 | 337 | 1.7 | 5.2 | 0.00 | 0.00 | 0.00 | 39 | 1016.7 |
| 20260503212017 | 63 | 331 | 1.7 | 5.2 | 0.00 | 0.00 | 0.00 | 40 | 1016.8 |
| 20260503211036 | 64 | 344 | 1.7 | 3.5 | 0.00 | 0.00 | 0.00 | 41 | 1017.0 |
| 20260503210016 | 64 | 330 | 1.7 | 5.2 | 0.00 | 0.00 | 0.00 | 42 | 1017.1 |
| 20260503205016 | 64 | 343 | 1.7 | 6.1 | 0.00 | 0.00 | 0.00 | 41 | 1017.2 |
| 20260503204016 | 64 | 318 | 1.7 | 6.1 | 0.00 | 0.00 | 0.00 | 42 | 1017.3 |
| 20260503203036 | 64 | 319 | 1.7 | 4.3 | 0.00 | 0.00 | 0.00 | 42 | 1017.5 |
| 20260503202016 | 64 | 325 | 1.7 | 5.2 | 0.00 | 0.00 | 0.00 | 44 | 1017.7 |
| 20260503201016 | 64 | 357 | 1.7 | 5.2 | 0.00 | 0.00 | 0.00 | 42 | 1017.9 |
| 20260503200016 | 64 | 341 | 1.7 | 4.3 | 0.00 | 0.00 | 0.00 | 44 | 1018.0 |
| 20260503195016 | 64 | 340 | 2.6 | 7.0 | 0.00 | 0.00 | 0.00 | 44 | 1018.1 |
| 20260503194056 | 64 | 330 | 2.6 | 7.0 | 0.00 | 0.00 | 0.00 | 46 | 1018.1 |
| 20260503193016 | 64 | 326 | 2.6 | 6.1 | 0.00 | 0.00 | 0.00 | 46 | 1018.2 |
| 20260503192016 | 63 | 332 | 2.6 | 6.1 | 0.00 | 0.00 | 0.00 | 45 | 1018.3 |
| 20260503191017 | 63 | 320 | 2.6 | 5.2 | 0.00 | 0.00 | 0.00 | 47 | 1018.4 |
| 20260503190016 | 63 | 332 | 2.6 | 5.2 | 0.00 | 0.00 | 0.00 | 44 | 1018.4 |
| 20260503185016 | 63 | 345 | 2.6 | 5.2 | 0.00 | 0.00 | 0.00 | 44 | 1018.5 |
| 20260503184037 | 63 | 331 | 2.6 | 7.0 | 0.00 | 0.00 | 0.00 | 46 | 1018.5 |
| 20260503183016 | 62 | 345 | 2.6 | 7.0 | 0.00 | 0.00 | 0.00 | 44 | 1018.7 |
| 20260503182016 | 62 | 321 | 1.7 | 4.3 | 0.00 | 0.00 | 0.00 | 43 | 1018.8 |
| 20260503181016 | 62 | 332 | 2.6 | 6.1 | 0.00 | 0.00 | 0.00 | 44 | 1018.8 |
| 20260503180016 | 62 | 341 | 2.6 | 6.1 | 0.00 | 0.00 | 0.00 | 45 | 1018.9 |
| 20260503175016 | 61 | 327 | 1.7 | 5.2 | 0.00 | 0.00 | 0.00 | 47 | 1019.1 |
| 20260503174016 | 61 | 335 | 2.6 | 5.2 | 0.00 | 0.00 | 0.00 | 46 | 1019.2 |
| 20260503173015 | 61 | 336 | 1.7 | 4.3 | 0.00 | 0.00 | 0.00 | 47 | 1019.3 |
| 20260503172016 | 60 | 273 | 0.9 | 3.5 | 0.00 | 0.00 | 0.00 | 47 | 1019.5 |
| 20260503171016 | 60 | 320 | 1.7 | 5.2 | 0.00 | 0.00 | 0.00 | 46 | 1019.7 |
| 20260503131036 | 39 | 0.0 | 0.0 | 0.00 | 0.00 | 0.00 | 91 | 1018.8 | |
| 20260503081016 | 38 | 0.0 | 0.0 | 0.00 | 0.00 | 0.00 | 88 | 1016.8 | |
| 20260503072037 | 39 | 0.0 | 0.0 | 0.00 | 0.00 | 0.00 | 87 | 1016.3 | |
| 20260503071016 | 39 | 0.0 | 0.0 | 0.00 | 0.00 | 0.00 | 86 | 1016.3 | |
| 20260503055016 | 43 | 0.0 | 0.0 | 0.00 | 0.00 | 0.00 | 79 | 1016.5 | |
| 20260503054016 | 44 | 0.0 | 0.0 | 0.00 | 0.00 | 0.00 | 76 | 1016.4 | |
| 20260503053015 | 44 | 0.0 | 0.0 | 0.00 | 0.00 | 0.00 | 75 | 1016.4 | |
| 20260503052016 | 45 | 0.0 | 0.0 | 0.00 | 0.00 | 0.00 | 76 | 1016.6 | |
| 20260503051016 | 45 | 0.0 | 0.0 | 0.00 | 0.00 | 0.00 | 76 | 1016.4 | |
| 20260503050016 | 45 | 0.0 | 0.0 | 0.00 | 0.00 | 0.00 | 77 | 1016.4 | |
| 20260503045016 | 45 | 0.0 | 0.9 | 0.00 | 0.00 | 0.00 | 77 | 1016.6 | |
| 20260503044035 | 45 | 126 | 0.0 | 1.7 | 0.00 | 0.00 | 0.00 | 77 | 1016.6 |
| 20260503043016 | 46 | 126 | 0.0 | 2.6 | 0.00 | 0.00 | 0.00 | 76 | 1016.4 |
| 20260503042015 | 46 | 126 | 0.9 | 6.1 | 0.00 | 0.00 | 0.00 | 77 | 1016.2 |
| 20260503041016 | 45 | 126 | 1.7 | 6.1 | 0.00 | 0.00 | 0.00 | 79 | 1016.1 |
| 20260503040015 | 44 | 140 | 1.7 | 4.3 | 0.00 | 0.00 | 0.00 | 79 | 1016.2 |